createdAt,value
2016-12-17T00:00:53.392Z,0.47
2016-12-17T00:01:53.356Z,0.42
2016-12-17T00:02:53.309Z,0.42
2016-12-17T00:03:53.271Z,0.42
2016-12-17T00:04:52.923Z,0.47
2016-12-17T00:05:53.186Z,0.51
2016-12-17T00:06:53.143Z,0.53
2016-12-17T00:07:52.798Z,0.47
2016-12-17T00:08:53.061Z,0.51
2016-12-17T00:09:53.016Z,0.5
2016-12-17T00:10:52.669Z,0.53
2016-12-17T00:11:52.926Z,0.55
2016-12-17T00:12:52.586Z,0.55
2016-12-17T00:13:52.846Z,0.53
2016-12-17T00:14:52.798Z,0.5
2016-12-17T00:15:52.760Z,0.51
2016-12-17T00:16:52.411Z,0.5
2016-12-17T00:17:52.372Z,0.57
2016-12-17T00:18:52.635Z,0.61
2016-12-17T00:19:52.592Z,0.5
2016-12-17T00:20:52.544Z,0.62
2016-12-17T00:21:52.507Z,0.58
2016-12-17T00:22:52.458Z,0.57
2016-12-17T00:23:52.417Z,0.66
2016-12-17T00:24:52.379Z,0.57
2016-12-17T00:25:52.032Z,0.55
2016-12-17T00:26:52.288Z,0.6
2016-12-17T00:27:51.947Z,0.65
2016-12-17T00:28:52.208Z,0.68
2016-12-17T00:29:51.863Z,0.66
2016-12-17T00:30:51.822Z,0.65
2016-12-17T00:31:52.081Z,0.68
2016-12-17T00:32:52.038Z,0.65
2016-12-17T00:33:51.695Z,0.66
2016-12-17T00:34:51.959Z,0.66
2016-12-17T00:35:51.913Z,0.55
2016-12-17T00:36:51.563Z,0.6
2016-12-17T00:37:51.825Z,0.58
2016-12-17T00:38:51.779Z,0.58
2016-12-17T00:39:51.739Z,0.61
2016-12-17T00:40:51.392Z,0.57
2016-12-17T00:41:51.352Z,0.58
2016-12-17T00:42:51.614Z,0.58
2016-12-17T00:43:51.574Z,0.57
2016-12-17T00:44:51.531Z,0.58
2016-12-17T00:45:51.491Z,0.62
2016-12-17T00:46:51.447Z,0.55
2016-12-17T00:47:51.397Z,0.55
2016-12-17T00:48:51.358Z,0.5
2016-12-17T00:49:51.315Z,0.58
2016-12-17T00:50:50.970Z,0.53
2016-12-17T00:51:50.925Z,0.5
2016-12-17T00:52:50.882Z,0.5
2016-12-17T00:53:51.145Z,0.53
2016-12-17T00:54:50.798Z,0.49
2016-12-17T00:55:51.059Z,0.42
2016-12-17T00:56:50.712Z,0.47
2016-12-17T00:57:50.370Z,0.51
2016-12-17T00:58:50.331Z,0.49
2016-12-17T00:59:50.894Z,0.49
2016-12-17T01:00:50.543Z,0.47
2016-12-17T01:01:50.507Z,0.5
2016-12-17T01:02:50.772Z,0.5
2016-12-17T01:03:50.716Z,0.46
2016-12-17T01:04:50.680Z,0.46
2016-12-17T01:05:50.637Z,0.5
2016-12-17T01:06:50.603Z,0.5
2016-12-17T01:07:50.560Z,0.5
2016-12-17T01:08:50.521Z,0.51
2016-12-17T01:09:50.469Z,0.5
2016-12-17T01:10:50.120Z,0.49
2016-12-17T01:11:50.377Z,0.5
2016-12-17T01:12:50.342Z,0.51
2016-12-17T01:13:50.296Z,0.51
2016-12-17T01:14:50.251Z,0.53
2016-12-17T01:15:49.913Z,0.5
2016-12-17T01:16:49.865Z,0.41
2016-12-17T01:17:50.125Z,0.51
2016-12-17T01:18:50.080Z,0.41
2016-12-17T01:19:50.037Z,0.49
2016-12-17T01:20:49.693Z,0.46
2016-12-17T01:21:49.666Z,0.44
2016-12-17T01:22:49.607Z,0.49
2016-12-17T01:23:49.866Z,0.49
2016-12-17T01:24:49.226Z,0.5
2016-12-17T01:25:49.785Z,0.51
2016-12-17T01:26:49.745Z,0.41
2016-12-17T01:27:49.702Z,0.5
2016-12-17T01:28:49.655Z,0.55
2016-12-17T01:29:49.614Z,0.49
2016-12-17T01:30:49.572Z,0.51
2016-12-17T01:31:49.224Z,0.44
2016-12-17T01:32:49.498Z,0.53
2016-12-17T01:33:49.443Z,0.55
2016-12-17T01:34:49.406Z,0.53
2016-12-17T01:35:49.357Z,0.46
2016-12-17T01:36:49.319Z,0.44
2016-12-17T01:37:48.972Z,0.51
2016-12-17T01:38:49.232Z,0.47
2016-12-17T01:39:49.190Z,0.46
2016-12-17T01:40:49.143Z,0.5
2016-12-17T01:41:49.108Z,0.42
2016-12-17T01:42:49.062Z,0.47
2016-12-17T01:43:48.410Z,0.49
2016-12-17T01:44:48.973Z,0.49
2016-12-17T01:45:48.931Z,0.41
2016-12-17T01:46:48.282Z,0.51
2016-12-17T01:47:48.545Z,0.46
2016-12-17T01:48:48.804Z,0.5
2016-12-17T01:49:48.764Z,0.53
2016-12-17T01:50:48.414Z,0.51
2016-12-17T01:51:48.676Z,0.5
2016-12-17T01:52:48.332Z,0.47
2016-12-17T01:53:48.589Z,0.44
2016-12-17T01:54:48.250Z,0.51
2016-12-17T01:55:48.510Z,0.51
2016-12-17T01:56:47.864Z,0.53
2016-12-17T01:57:48.419Z,0.53
2016-12-17T01:58:48.072Z,0.42
2016-12-17T01:59:48.331Z,0.51
2016-12-17T02:00:47.991Z,0.47
2016-12-17T02:01:47.949Z,0.46
2016-12-17T02:02:48.208Z,0.39
2016-12-17T02:03:48.168Z,0.44
2016-12-17T02:04:48.136Z,0.5
2016-12-17T02:05:48.081Z,0.41
2016-12-17T02:06:48.043Z,0.44
2016-12-17T02:07:47.995Z,0.5
2016-12-17T02:08:47.951Z,0.53
2016-12-17T02:09:47.916Z,0.5
2016-12-17T02:10:47.868Z,0.5
2016-12-17T02:11:47.525Z,0.5
2016-12-17T02:12:47.483Z,0.46
2016-12-17T02:13:47.139Z,0.42
2016-12-17T02:14:47.401Z,0.49
2016-12-17T02:15:47.355Z,0.41
2016-12-17T02:16:47.615Z,0.53
2016-12-17T02:17:46.966Z,0.49
2016-12-17T02:18:47.528Z,0.5
2016-12-17T02:19:47.183Z,0.51
2016-12-17T02:20:47.447Z,0.46
2016-12-17T02:21:46.822Z,0.46
2016-12-17T02:22:47.057Z,0.53
2016-12-17T02:23:47.317Z,0.5
2016-12-17T02:24:47.281Z,0.5
2016-12-17T02:25:46.931Z,0.51
2016-12-17T02:26:47.188Z,0.46
2016-12-17T02:27:46.841Z,0.49
2016-12-17T02:28:47.100Z,0.51
2016-12-17T02:29:46.759Z,0.51
2016-12-17T02:30:47.014Z,0.46
2016-12-17T02:31:46.976Z,0.46
2016-12-17T02:32:46.932Z,0.47
2016-12-17T02:33:46.591Z,0.49
2016-12-17T02:34:46.853Z,0.44
2016-12-17T02:35:46.806Z,0.46
2016-12-17T02:36:46.463Z,0.49
2016-12-17T02:37:46.723Z,0.38
2016-12-17T02:38:46.381Z,0.47
2016-12-17T02:39:46.639Z,0.47
2016-12-17T02:40:46.594Z,0.46
2016-12-17T02:41:46.549Z,0.47
2016-12-17T02:42:46.504Z,0.46
2016-12-17T02:43:46.166Z,0.5
2016-12-17T02:44:46.120Z,0.47
2016-12-17T02:45:46.381Z,0.44
2016-12-17T02:46:46.338Z,0.44
2016-12-17T02:47:46.295Z,0.47
2016-12-17T02:48:46.254Z,0.46
2016-12-17T02:49:45.911Z,0.42
2016-12-17T02:50:46.170Z,0.46
2016-12-17T02:51:46.129Z,0.46
2016-12-17T02:52:45.781Z,0.49
2016-12-17T02:53:46.046Z,0.46
2016-12-17T02:54:45.694Z,0.5
2016-12-17T02:55:45.677Z,0.47
2016-12-17T02:56:45.912Z,0.49
2016-12-17T02:57:45.872Z,0.47
2016-12-17T02:58:45.829Z,0.47
2016-12-17T02:59:45.790Z,0.46
2016-12-17T03:00:45.745Z,0.46
2016-12-17T03:01:45.704Z,0.5
2016-12-17T03:02:45.355Z,0.44
2016-12-17T03:03:45.313Z,0.46
2016-12-17T03:04:45.569Z,0.44
2016-12-17T03:05:45.530Z,0.5
2016-12-17T03:06:45.485Z,0.46
2016-12-17T03:07:45.143Z,0.47
2016-12-17T03:08:45.404Z,0.47
2016-12-17T03:09:45.059Z,0.49
2016-12-17T03:10:45.320Z,0.47
2016-12-17T03:11:45.277Z,0.46
2016-12-17T03:12:44.929Z,0.44
2016-12-17T03:13:44.889Z,0.46
2016-12-17T03:14:45.146Z,0.46
2016-12-17T03:15:45.107Z,0.46
2016-12-17T03:16:45.067Z,0.46
2016-12-17T03:17:45.020Z,0.42
2016-12-17T03:18:44.980Z,0.41
2016-12-17T03:19:44.640Z,0.28
2016-12-17T03:20:44.921Z,0.28
2016-12-17T03:21:44.851Z,0.2
2016-12-17T03:22:44.506Z,0.17
2016-12-17T03:23:44.769Z,0.2
2016-12-17T03:24:44.419Z,0.14
2016-12-17T03:25:44.376Z,0.2
2016-12-17T03:26:44.635Z,0.24
2016-12-17T03:27:44.294Z,0.29
2016-12-17T03:28:44.559Z,0.23
2016-12-17T03:29:44.524Z,0.28
2016-12-17T03:30:44.168Z,0.35
2016-12-17T03:31:44.425Z,0.42
2016-12-17T03:32:44.381Z,0.36
2016-12-17T03:33:44.338Z,0.35
2016-12-17T03:34:43.994Z,0.38
2016-12-17T03:35:43.955Z,0.42
2016-12-17T03:36:44.222Z,0.39
2016-12-17T03:37:44.171Z,0.47
2016-12-17T03:38:43.856Z,0.35
2016-12-17T03:39:44.079Z,0.46
2016-12-17T03:40:44.041Z,0.44
2016-12-17T03:41:44.001Z,0.42
2016-12-17T03:42:43.660Z,0.46
2016-12-17T03:43:43.611Z,0.46
2016-12-17T03:44:43.873Z,0.47
2016-12-17T03:45:43.527Z,0.42
2016-12-17T03:46:43.792Z,0.47
2016-12-17T03:47:43.446Z,0.51
2016-12-17T03:48:43.705Z,0.46
2016-12-17T03:49:43.359Z,0.49
2016-12-17T03:50:43.010Z,0.51
2016-12-17T03:51:43.574Z,0.51
2016-12-17T03:52:43.533Z,0.51
2016-12-17T03:53:43.496Z,0.53
2016-12-17T03:54:43.448Z,0.47
2016-12-17T03:55:43.106Z,0.49
2016-12-17T03:56:43.364Z,0.44
2016-12-17T03:57:42.714Z,0.55
2016-12-17T03:58:43.278Z,0.47
2016-12-17T03:59:42.934Z,0.55
2016-12-17T04:00:43.192Z,0.51
2016-12-17T04:01:43.155Z,0.53
2016-12-17T04:02:43.107Z,0.46
2016-12-17T04:03:43.067Z,0.57
2016-12-17T04:04:43.023Z,0.49
2016-12-17T04:05:42.979Z,0.5
2016-12-17T04:06:42.333Z,0.46
2016-12-17T04:07:42.596Z,0.55
2016-12-17T04:08:42.548Z,0.46
2016-12-17T04:09:42.813Z,0.49
2016-12-17T04:10:42.764Z,0.47
2016-12-17T04:11:42.729Z,0.49
2016-12-17T04:12:42.681Z,0.44
2016-12-17T04:13:42.668Z,0.47
2016-12-17T04:14:42.603Z,0.49
2016-12-17T04:15:42.553Z,0.47
2016-12-17T04:16:42.514Z,0.47
2016-12-17T04:17:42.466Z,0.53
2016-12-17T04:18:42.425Z,0.49
2016-12-17T04:19:42.383Z,0.47
2016-12-17T04:20:42.375Z,0.46
2016-12-17T04:21:41.998Z,0.44
2016-12-17T04:22:41.953Z,0.39
2016-12-17T04:23:41.915Z,0.35
2016-12-17T04:24:42.171Z,0.39
2016-12-17T04:25:41.827Z,0.35
2016-12-17T04:26:41.481Z,0.33
2016-12-17T04:27:42.043Z,0.36
2016-12-17T04:28:41.702Z,0.31
2016-12-17T04:29:41.963Z,0.29
2016-12-17T04:30:41.914Z,0.26
2016-12-17T04:31:41.574Z,0.31
2016-12-17T04:32:41.834Z,0.29
2016-12-17T04:33:41.489Z,0.31
2016-12-17T04:34:41.748Z,0.32
2016-12-17T04:35:41.704Z,0.26
2016-12-17T04:36:41.357Z,0.28
2016-12-17T04:37:41.317Z,0.28
2016-12-17T04:38:41.580Z,0.29
2016-12-17T04:39:41.230Z,0.36
2016-12-17T04:40:41.190Z,0.36
2016-12-17T04:41:41.453Z,0.41
2016-12-17T04:42:41.408Z,0.44
2016-12-17T04:43:41.365Z,0.29
2016-12-17T04:44:41.323Z,0.33
2016-12-17T04:45:41.284Z,0.35
2016-12-17T04:46:41.233Z,0.29
2016-12-17T04:47:41.196Z,0.28
2016-12-17T04:48:40.849Z,0.26
2016-12-17T04:49:40.802Z,0.26
2016-12-17T04:50:41.068Z,0.31
2016-12-17T04:51:40.721Z,0.29
2016-12-17T04:52:40.675Z,0.29
2016-12-17T04:53:40.937Z,0.26
2016-12-17T04:54:40.589Z,0.42
2016-12-17T04:55:40.550Z,0.36
2016-12-17T04:56:40.507Z,0.29
2016-12-17T04:57:40.763Z,0.35
2016-12-17T04:58:40.724Z,0.29
2016-12-17T04:59:40.378Z,0.24
2016-12-17T05:00:40.641Z,0.28
2016-12-17T05:01:40.599Z,0.28
2016-12-17T05:02:40.556Z,0.29
2016-12-17T05:03:40.510Z,0.28
2016-12-17T05:04:40.472Z,0.28
2016-12-17T05:05:40.427Z,0.32
2016-12-17T05:06:40.388Z,0.36
2016-12-17T05:07:40.345Z,0.36
2016-12-17T05:08:40.305Z,0.33
2016-12-17T05:09:40.254Z,0.29
2016-12-17T05:10:39.912Z,0.24
2016-12-17T05:11:40.170Z,0.29
2016-12-17T05:12:40.129Z,0.31
2016-12-17T05:13:39.483Z,0.31
2016-12-17T05:14:39.745Z,0.32
2016-12-17T05:15:39.702Z,0.15
2016-12-17T05:16:39.960Z,0.28
2016-12-17T05:17:39.915Z,0.29
2016-12-17T05:18:39.872Z,0.26
2016-12-17T05:19:39.831Z,0.18
2016-12-17T05:20:39.789Z,0.17
2016-12-17T05:21:39.445Z,0.24
2016-12-17T05:22:39.702Z,0.21
2016-12-17T05:23:39.664Z,0.17
2016-12-17T05:24:39.617Z,0.13
2016-12-17T05:25:39.576Z,0.14
2016-12-17T05:26:39.532Z,0.1
2016-12-17T05:27:39.192Z,0.08
2016-12-17T05:28:39.145Z,-0.01
2016-12-17T05:29:39.099Z,-0.01
2016-12-17T05:30:39.058Z,0.03
2016-12-17T05:31:39.015Z,0.07
2016-12-17T05:32:38.976Z,0.02
2016-12-17T05:33:39.230Z,-0.01
2016-12-17T05:34:38.887Z,0
2016-12-17T05:35:38.845Z,0.07
2016-12-17T05:36:39.104Z,0.17
2016-12-17T05:37:38.764Z,0.18
2016-12-17T05:38:39.021Z,0.17
2016-12-17T05:39:38.979Z,0.17
2016-12-17T05:40:38.631Z,0.17
2016-12-17T05:41:38.291Z,0.08
2016-12-17T05:42:38.850Z,0.15
2016-12-17T05:43:38.805Z,0.17
2016-12-17T05:44:38.474Z,0.2
2016-12-17T05:45:38.727Z,0.04
2016-12-17T05:46:38.677Z,0.13
2016-12-17T05:47:38.639Z,0.03
2016-12-17T05:48:38.599Z,0.1
2016-12-17T05:49:38.249Z,0.02
2016-12-17T05:50:37.902Z,0.1
2016-12-17T05:51:38.466Z,0
2016-12-17T05:52:38.420Z,0.02
2016-12-17T05:53:38.377Z,-0.07
2016-12-17T05:54:38.338Z,-0.01
2016-12-17T05:55:38.291Z,-0.04
2016-12-17T05:56:38.252Z,-0.03
2016-12-17T05:57:38.206Z,-0.03
2016-12-17T05:58:37.865Z,-0.03
2016-12-17T05:59:38.125Z,-0.04
2016-12-17T06:00:38.078Z,-0.04
2016-12-17T06:01:38.044Z,-0.07
2016-12-17T06:02:37.691Z,-0.07
2016-12-17T06:03:37.649Z,0.02
2016-12-17T06:04:37.607Z,0.13
2016-12-17T06:05:37.568Z,0.03
2016-12-17T06:06:37.823Z,0.1
2016-12-17T06:07:37.782Z,0.1
2016-12-17T06:08:37.743Z,0.07
2016-12-17T06:09:37.693Z,0.08
2016-12-17T06:10:37.650Z,0.13
2016-12-17T06:11:37.306Z,0.11
2016-12-17T06:12:36.964Z,0.17
2016-12-17T06:13:37.556Z,0.13
2016-12-17T06:14:37.480Z,0.08
2016-12-17T06:15:37.445Z,0.13
2016-12-17T06:16:37.091Z,0.07
2016-12-17T06:17:37.355Z,0.15
2016-12-17T06:18:37.314Z,0.14
2016-12-17T06:19:37.270Z,0.21
2016-12-17T06:20:36.922Z,0.2
2016-12-17T06:21:36.876Z,0.23
2016-12-17T06:22:37.142Z,0.17
2016-12-17T06:23:37.096Z,0.24
2016-12-17T06:24:36.750Z,0.28
2016-12-17T06:25:37.013Z,0.26
2016-12-17T06:26:36.970Z,0.2
2016-12-17T06:27:36.925Z,0.21
2016-12-17T06:28:36.884Z,0.26
2016-12-17T06:29:36.837Z,0.18
2016-12-17T06:30:36.493Z,0.32
2016-12-17T06:31:36.754Z,0.21
2016-12-17T06:32:36.408Z,0.28
2016-12-17T06:33:36.696Z,0.23
2016-12-17T06:34:36.627Z,0.23
2016-12-17T06:35:36.589Z,0.29
2016-12-17T06:36:36.543Z,0.23
2016-12-17T06:37:36.500Z,0.29
2016-12-17T06:38:36.456Z,0.29
2016-12-17T06:39:36.111Z,0.23
2016-12-17T06:40:36.370Z,0.18
2016-12-17T06:41:36.329Z,0.2
2016-12-17T06:42:36.284Z,0.24
2016-12-17T06:43:35.942Z,0.17
2016-12-17T06:44:36.200Z,0.18
2016-12-17T06:45:35.857Z,0.24
2016-12-17T06:46:36.113Z,0.18
2016-12-17T06:47:36.076Z,0.15
2016-12-17T06:48:36.028Z,0.2
2016-12-17T06:49:35.985Z,0.18
2016-12-17T06:50:35.942Z,0.18
2016-12-17T06:51:35.901Z,0.23
2016-12-17T06:52:35.867Z,0.31
2016-12-17T06:53:35.816Z,0.24
2016-12-17T06:54:35.772Z,0.24
2016-12-17T06:55:35.427Z,0.26
2016-12-17T06:56:35.395Z,0.33
2016-12-17T06:57:35.647Z,0.29
2016-12-17T06:58:35.599Z,0.32
2016-12-17T06:59:35.563Z,0.24
2016-12-17T07:00:35.516Z,0.35
2016-12-17T07:01:35.173Z,0.2
2016-12-17T07:02:35.128Z,0.32
2016-12-17T07:03:35.095Z,0.24
2016-12-17T07:04:35.047Z,0.28
2016-12-17T07:05:35.012Z,0.28
2016-12-17T07:06:35.263Z,0.17
2016-12-17T07:07:34.915Z,0.24
2016-12-17T07:08:35.173Z,0.13
2016-12-17T07:09:35.137Z,0.18
2016-12-17T07:10:34.788Z,0.15
2016-12-17T07:11:35.049Z,0.24
2016-12-17T07:12:35.005Z,0.31
2016-12-17T07:13:34.963Z,0.26
2016-12-17T07:14:34.920Z,0.32
2016-12-17T07:15:34.879Z,0.28
2016-12-17T07:16:34.839Z,0.31
2016-12-17T07:17:34.790Z,0.31
2016-12-17T07:18:34.451Z,0.23
2016-12-17T07:19:34.702Z,0.28
2016-12-17T07:20:34.664Z,0.24
2016-12-17T07:21:34.632Z,0.2
2016-12-17T07:22:34.578Z,0.2
2016-12-17T07:23:34.536Z,0.2
2016-12-17T07:24:34.493Z,0.21
2016-12-17T07:25:34.451Z,0.29
2016-12-17T07:26:34.408Z,0.26
2016-12-17T07:27:34.061Z,0.2
2016-12-17T07:28:34.025Z,0.32
2016-12-17T07:29:34.280Z,0.24
2016-12-17T07:30:34.237Z,0.29
2016-12-17T07:31:33.894Z,0.36
2016-12-17T07:32:34.153Z,0.36
2016-12-17T07:33:33.808Z,0.44
2016-12-17T07:34:34.073Z,0.41
2016-12-17T07:35:34.030Z,0.31
2016-12-17T07:36:33.682Z,0.33
2016-12-17T07:37:33.640Z,0.32
2016-12-17T07:38:33.927Z,0.24
2016-12-17T07:39:33.853Z,0.33
2016-12-17T07:40:33.813Z,0.42
2016-12-17T07:41:33.766Z,0.36
2016-12-17T07:42:33.733Z,0.44
2016-12-17T07:43:33.687Z,0.33
2016-12-17T07:44:33.639Z,0.41
2016-12-17T07:45:32.999Z,0.51
2016-12-17T07:46:33.258Z,0.53
2016-12-17T07:47:32.911Z,0.44
2016-12-17T07:48:33.169Z,0.51
2016-12-17T07:49:33.428Z,0.47
2016-12-17T07:50:33.082Z,0.49
2016-12-17T07:51:33.046Z,0.62
2016-12-17T07:52:33.302Z,0.65
2016-12-17T07:53:32.959Z,0.6
2016-12-17T07:54:33.216Z,0.61
2016-12-17T07:55:33.172Z,0.62
2016-12-17T07:56:33.129Z,0.57
2016-12-17T07:57:33.089Z,0.57
2016-12-17T07:58:32.441Z,0.53
2016-12-17T07:59:32.999Z,0.57
2016-12-17T08:00:32.964Z,0.61
2016-12-17T08:01:32.345Z,0.55
2016-12-17T08:02:32.874Z,0.58
2016-12-17T08:03:32.536Z,0.61
2016-12-17T08:04:32.789Z,0.61
2016-12-17T08:05:32.748Z,0.61
2016-12-17T08:06:32.711Z,0.65
2016-12-17T08:07:32.661Z,0.78
2016-12-17T08:08:32.320Z,0.73
2016-12-17T08:09:32.279Z,0.76
2016-12-17T08:10:32.232Z,0.72
2016-12-17T08:11:32.493Z,0.79
2016-12-17T08:12:32.150Z,0.8
2016-12-17T08:13:31.808Z,0.86
2016-12-17T08:14:32.366Z,0.84
2016-12-17T08:15:32.321Z,0.91
2016-12-17T08:16:32.279Z,0.9
2016-12-17T08:17:31.937Z,0.91
2016-12-17T08:18:32.195Z,0.88
2016-12-17T08:19:32.149Z,0.91
2016-12-17T08:20:32.114Z,0.93
2016-12-17T08:21:31.766Z,0.91
2016-12-17T08:22:31.724Z,0.97
2016-12-17T08:23:31.981Z,0.96
2016-12-17T08:24:31.641Z,1
2016-12-17T08:25:31.596Z,0.94
2016-12-17T08:26:31.859Z,0.91
2016-12-17T08:27:31.817Z,0.88
2016-12-17T08:28:31.773Z,0.98
2016-12-17T08:29:31.729Z,0.91
2016-12-17T08:30:31.693Z,0.96
2016-12-17T08:31:31.642Z,0.91
2016-12-17T08:32:31.604Z,0.88
2016-12-17T08:33:31.565Z,0.76
2016-12-17T08:34:31.245Z,0.76
2016-12-17T08:35:31.478Z,0.73
2016-12-17T08:36:31.135Z,0.7
2016-12-17T08:37:31.387Z,0.68
2016-12-17T08:38:31.347Z,0.7
2016-12-17T08:39:31.003Z,0.62
2016-12-17T08:40:30.960Z,0.62
2016-12-17T08:41:31.219Z,0.53
2016-12-17T08:42:30.892Z,0.58
2016-12-17T08:43:30.834Z,0.55
2016-12-17T08:44:31.091Z,0.6
2016-12-17T08:45:31.052Z,0.66
2016-12-17T08:46:30.711Z,0.65
2016-12-17T08:47:30.965Z,0.78
2016-12-17T08:48:30.622Z,0.75
2016-12-17T08:49:30.878Z,0.76
2016-12-17T08:50:30.839Z,0.73
2016-12-17T08:51:30.497Z,0.84
2016-12-17T08:52:30.752Z,0.8
2016-12-17T08:53:30.406Z,0.87
2016-12-17T08:54:30.667Z,0.91
2016-12-17T08:55:30.627Z,0.94
2016-12-17T08:56:30.593Z,1.04
2016-12-17T08:57:30.541Z,1
2016-12-17T08:58:30.502Z,1.05
2016-12-17T08:59:30.463Z,1.18
2016-12-17T09:00:30.117Z,1.14
2016-12-17T09:01:30.369Z,1.12
2016-12-17T09:02:30.332Z,1.14
2016-12-17T09:03:30.285Z,1.15
2016-12-17T09:04:30.241Z,1.16
2016-12-17T09:05:30.209Z,1.15
2016-12-17T09:06:30.154Z,1.23
2016-12-17T09:07:30.116Z,1.15
2016-12-17T09:08:29.768Z,1.22
2016-12-17T09:09:29.730Z,1.27
2016-12-17T09:10:29.685Z,1.27
2016-12-17T09:11:29.945Z,1.27
2016-12-17T09:12:29.609Z,1.32
2016-12-17T09:13:29.867Z,1.23
2016-12-17T09:14:29.853Z,1.22
2016-12-17T09:15:29.777Z,1.29
2016-12-17T09:16:29.735Z,1.2
2016-12-17T09:17:29.693Z,1.22
2016-12-17T09:18:29.651Z,1.18
2016-12-17T09:19:29.309Z,1.18
2016-12-17T09:20:29.567Z,1.16
2016-12-17T09:21:29.524Z,1.2
2016-12-17T09:22:29.482Z,1.12
2016-12-17T09:23:29.137Z,1.09
2016-12-17T09:24:29.095Z,1.11
2016-12-17T09:25:29.055Z,1.11
2016-12-17T09:26:29.009Z,1.11
2016-12-17T09:27:28.971Z,0.98
2016-12-17T09:28:29.227Z,1.06
2016-12-17T09:29:29.185Z,0.87
2016-12-17T09:30:29.146Z,0.88
2016-12-17T09:31:29.102Z,0.96
2016-12-17T09:32:29.057Z,0.94
2016-12-17T09:33:29.044Z,1.08
2016-12-17T09:34:28.977Z,1.02
2016-12-17T09:35:28.634Z,0.96
2016-12-17T09:36:28.587Z,1.02
2016-12-17T09:37:28.887Z,1.08
2016-12-17T09:38:28.502Z,1.08
2016-12-17T09:39:28.766Z,1.12
2016-12-17T09:40:28.421Z,1.11
2016-12-17T09:41:28.374Z,1.08
2016-12-17T09:42:28.371Z,1.22
2016-12-17T09:43:28.595Z,1.18
2016-12-17T09:44:28.548Z,1.23
2016-12-17T09:45:28.507Z,1.24
2016-12-17T09:46:28.464Z,1.24
2016-12-17T09:47:27.826Z,1.27
2016-12-17T09:48:28.383Z,1.2
2016-12-17T09:49:28.345Z,1.12
2016-12-17T09:50:28.298Z,0.96
2016-12-17T09:51:28.257Z,0.9
2016-12-17T09:52:27.907Z,0.87
2016-12-17T09:53:28.170Z,0.78
2016-12-17T09:54:27.824Z,0.68
2016-12-17T09:55:27.788Z,0.79
2016-12-17T09:56:27.748Z,0.76
2016-12-17T09:57:28.005Z,0.76
2016-12-17T09:58:27.959Z,0.78
2016-12-17T09:59:27.919Z,0.88
2016-12-17T10:00:27.597Z,0.87
2016-12-17T10:01:27.833Z,0.87
2016-12-17T10:02:27.501Z,0.91
2016-12-17T10:03:27.445Z,0.93
2016-12-17T10:04:27.705Z,1
2016-12-17T10:05:27.364Z,1.09
2016-12-17T10:06:27.318Z,1.04
2016-12-17T10:07:27.273Z,1.06
2016-12-17T10:08:27.236Z,1.14
2016-12-17T10:09:27.493Z,1.18
2016-12-17T10:10:27.450Z,1.22
2016-12-17T10:11:27.109Z,1.16
2016-12-17T10:12:27.371Z,1.3
2016-12-17T10:13:27.328Z,1.29
2016-12-17T10:14:27.284Z,1.37
2016-12-17T10:15:27.245Z,1.41
2016-12-17T10:16:27.195Z,1.48
2016-12-17T10:17:27.164Z,1.48
2016-12-17T10:18:26.824Z,1.45
2016-12-17T10:19:27.080Z,1.5
2016-12-17T10:20:27.029Z,1.4
2016-12-17T10:21:26.686Z,1.4
2016-12-17T10:22:26.942Z,1.41
2016-12-17T10:23:26.912Z,1.47
2016-12-17T10:24:26.581Z,1.32
2016-12-17T10:25:26.852Z,1.29
2016-12-17T10:26:26.777Z,1.33
2016-12-17T10:27:26.430Z,1.3
2016-12-17T10:28:26.390Z,1.27
2016-12-17T10:29:26.650Z,1.33
2016-12-17T10:30:26.624Z,1.41
2016-12-17T10:31:26.265Z,1.41
2016-12-17T10:32:26.225Z,1.55
2016-12-17T10:33:26.480Z,1.58
2016-12-17T10:34:26.438Z,1.54
2016-12-17T10:35:26.095Z,1.63
2016-12-17T10:36:26.358Z,1.65
2016-12-17T10:37:26.312Z,1.7
2016-12-17T10:38:26.270Z,1.8
2016-12-17T10:39:25.925Z,1.87
2016-12-17T10:40:26.187Z,1.98
2016-12-17T10:41:25.841Z,1.99
2016-12-17T10:42:25.815Z,1.9
2016-12-17T10:43:26.058Z,1.93
2016-12-17T10:44:25.725Z,1.93
2016-12-17T10:45:25.978Z,1.98
2016-12-17T10:46:25.935Z,1.93
2016-12-17T10:47:25.589Z,1.93
2016-12-17T10:48:25.854Z,1.91
2016-12-17T10:49:25.511Z,1.93
2016-12-17T10:50:25.794Z,1.95
2016-12-17T10:51:25.729Z,1.95
2016-12-17T10:52:25.385Z,1.81
2016-12-17T10:53:25.646Z,1.66
2016-12-17T10:54:25.597Z,1.62
2016-12-17T10:55:25.557Z,1.58
2016-12-17T10:56:25.218Z,1.69
2016-12-17T10:57:25.175Z,1.73
2016-12-17T10:58:25.431Z,1.73
2016-12-17T10:59:24.799Z,1.65
2016-12-17T11:00:25.351Z,1.7
2016-12-17T11:01:25.308Z,1.79
2016-12-17T11:02:25.263Z,1.69
2016-12-17T11:03:25.223Z,1.7
2016-12-17T11:04:24.583Z,1.6
2016-12-17T11:05:25.139Z,1.48
2016-12-17T11:06:24.796Z,1.42
2016-12-17T11:07:25.055Z,1.44
2016-12-17T11:08:24.412Z,1.4
2016-12-17T11:09:24.667Z,1.27
2016-12-17T11:10:24.326Z,1.27
2016-12-17T11:11:24.892Z,1.3
2016-12-17T11:12:24.849Z,1.23
2016-12-17T11:13:24.506Z,1.29
2016-12-17T11:14:24.765Z,1.32
2016-12-17T11:15:24.721Z,1.24
2016-12-17T11:16:24.682Z,1.33
2016-12-17T11:17:24.639Z,1.42
2016-12-17T11:18:24.596Z,1.47
2016-12-17T11:19:24.562Z,1.5
2016-12-17T11:20:23.925Z,1.59
2016-12-17T11:21:24.476Z,1.54
2016-12-17T11:22:23.825Z,1.65
2016-12-17T11:23:24.384Z,1.66
2016-12-17T11:24:24.042Z,1.73
2016-12-17T11:25:24.303Z,1.66
2016-12-17T11:26:24.267Z,1.7
2016-12-17T11:27:24.229Z,1.69
2016-12-17T11:28:24.176Z,1.68
2016-12-17T11:29:23.836Z,1.7
2016-12-17T11:30:24.094Z,1.69
2016-12-17T11:31:23.747Z,1.77
2016-12-17T11:32:23.709Z,1.73
2016-12-17T11:33:23.668Z,1.6
2016-12-17T11:34:23.928Z,1.59
2016-12-17T11:35:23.882Z,1.63
2016-12-17T11:36:23.541Z,1.55
2016-12-17T11:37:23.801Z,1.52
2016-12-17T11:38:23.759Z,1.55
2016-12-17T11:39:23.416Z,1.52
2016-12-17T11:40:23.074Z,1.6
2016-12-17T11:41:23.636Z,1.81
2016-12-17T11:42:23.594Z,1.84
2016-12-17T11:43:23.272Z,1.93
2016-12-17T11:44:23.509Z,2.05
2016-12-17T11:45:23.165Z,2.1
2016-12-17T11:46:23.430Z,2.16
2016-12-17T11:47:23.380Z,2.24
2016-12-17T11:48:23.037Z,2.28
2016-12-17T11:49:23.303Z,2.28
2016-12-17T11:50:23.258Z,2.25
2016-12-17T11:51:23.214Z,2.31
2016-12-17T11:52:23.176Z,2.42
2016-12-17T11:53:23.161Z,2.39
2016-12-17T11:54:23.090Z,2.42
2016-12-17T11:55:22.748Z,2.54
2016-12-17T11:56:23.015Z,2.59
2016-12-17T11:57:22.973Z,2.61
2016-12-17T11:58:22.319Z,2.64
2016-12-17T11:59:22.880Z,2.82
2016-12-17T12:00:22.838Z,2.74
2016-12-17T12:01:22.795Z,2.78
2016-12-17T12:02:22.458Z,2.81
2016-12-17T12:03:22.416Z,2.77
2016-12-17T12:04:22.370Z,2.78
2016-12-17T12:05:22.332Z,2.78
2016-12-17T12:06:22.019Z,2.81
2016-12-17T12:07:22.549Z,2.81
2016-12-17T12:08:22.212Z,2.82
2016-12-17T12:09:22.467Z,2.72
2016-12-17T12:10:22.428Z,2.77
2016-12-17T12:11:22.082Z,2.81
2016-12-17T12:12:22.047Z,2.79
2016-12-17T12:13:22.001Z,2.92
2016-12-17T12:14:21.989Z,2.84
2016-12-17T12:15:22.218Z,2.89
2016-12-17T12:16:22.178Z,2.93
2016-12-17T12:17:22.140Z,2.81
2016-12-17T12:18:21.790Z,2.85
2016-12-17T12:19:21.755Z,2.82
2016-12-17T12:20:22.015Z,2.79
2016-12-17T12:21:21.972Z,2.87
2016-12-17T12:22:21.631Z,2.77
2016-12-17T12:23:21.287Z,2.92
2016-12-17T12:24:21.854Z,2.93
2016-12-17T12:25:21.812Z,3
2016-12-17T12:26:21.502Z,3.18
2016-12-17T12:27:21.425Z,3.18
2016-12-17T12:28:21.400Z,3.2
2016-12-17T12:29:21.643Z,3.4
2016-12-17T12:30:21.602Z,3.42
2016-12-17T12:31:21.264Z,3.43
2016-12-17T12:32:21.223Z,3.48
2016-12-17T12:33:21.482Z,3.35
2016-12-17T12:34:20.840Z,3.5
2016-12-17T12:35:21.398Z,3.45
2016-12-17T12:36:21.367Z,3.48
2016-12-17T12:37:21.316Z,3.5
2016-12-17T12:38:20.973Z,3.47
2016-12-17T12:39:20.936Z,3.45
2016-12-17T12:40:21.197Z,3.47
2016-12-17T12:41:21.155Z,3.55
2016-12-17T12:42:21.113Z,3.55
2016-12-17T12:43:20.771Z,3.43
2016-12-17T12:44:20.726Z,3.45
2016-12-17T12:45:20.987Z,3.4
2016-12-17T12:46:20.948Z,3.43
2016-12-17T12:47:20.907Z,3.32
2016-12-17T12:48:20.561Z,3.39
2016-12-17T12:49:20.526Z,3.36
2016-12-17T12:50:20.785Z,3.45
2016-12-17T12:51:20.746Z,3.31
2016-12-17T12:52:20.702Z,3.35
2016-12-17T12:53:20.363Z,3.21
2016-12-17T12:54:20.330Z,3.24
2016-12-17T12:55:20.586Z,3.29
2016-12-17T12:56:20.545Z,3.24
2016-12-17T12:57:20.500Z,3.29
2016-12-17T12:58:20.459Z,3.24
2016-12-17T12:59:20.114Z,3.2
2016-12-17T13:00:20.078Z,3.28
2016-12-17T13:01:20.337Z,3.15
2016-12-17T13:02:20.295Z,3.03
2016-12-17T13:03:19.650Z,3.11
2016-12-17T13:04:19.911Z,3.14
2016-12-17T13:05:20.182Z,3.23
2016-12-17T13:06:19.828Z,3.11
2016-12-17T13:07:20.094Z,3
2016-12-17T13:08:20.055Z,2.92
2016-12-17T13:09:19.707Z,2.89
2016-12-17T13:10:19.974Z,2.96
2016-12-17T13:11:19.629Z,2.96
2016-12-17T13:12:19.891Z,2.93
2016-12-17T13:13:19.886Z,2.9
2016-12-17T13:14:19.811Z,2.95
2016-12-17T13:15:19.766Z,2.93
2016-12-17T13:16:19.423Z,2.92
2016-12-17T13:17:19.684Z,3.03
2016-12-17T13:18:19.651Z,3
2016-12-17T13:19:19.629Z,2.9
2016-12-17T13:20:19.565Z,2.96
2016-12-17T13:21:19.520Z,2.93